sensor_id;sensor_type;location;lat;lon;timestamp;P1;durP1;ratioP1;P2;durP2;ratioP2
77222;SDS011;66218;48.928;9.140;2023-05-14T00:00:09;4.82;;;3.08;;
77222;SDS011;66218;48.928;9.140;2023-05-14T00:02:35;6.95;;;3.78;;
77222;SDS011;66218;48.928;9.140;2023-05-14T00:05:00;7.20;;;4.43;;
77222;SDS011;66218;48.928;9.140;2023-05-14T00:07:25;11.52;;;3.58;;
77222;SDS011;66218;48.928;9.140;2023-05-14T00:09:54;8.63;;;3.63;;
77222;SDS011;66218;48.928;9.140;2023-05-14T00:12:23;7.28;;;4.47;;
77222;SDS011;66218;48.928;9.140;2023-05-14T00:14:50;5.55;;;3.17;;
77222;SDS011;66218;48.928;9.140;2023-05-14T00:17:16;6.47;;;3.55;;
77222;SDS011;66218;48.928;9.140;2023-05-14T00:19:41;6.63;;;3.38;;
77222;SDS011;66218;48.928;9.140;2023-05-14T00:22:07;7.85;;;4.05;;
77222;SDS011;66218;48.928;9.140;2023-05-14T00:24:33;5.32;;;3.50;;
77222;SDS011;66218;48.928;9.140;2023-05-14T00:26:59;8.60;;;3.55;;
77222;SDS011;66218;48.928;9.140;2023-05-14T00:29:24;11.85;;;4.90;;
77222;SDS011;66218;48.928;9.140;2023-05-14T00:31:50;6.95;;;3.42;;
77222;SDS011;66218;48.928;9.140;2023-05-14T00:34:15;7.82;;;3.58;;
77222;SDS011;66218;48.928;9.140;2023-05-14T00:36:40;6.28;;;3.05;;
77222;SDS011;66218;48.928;9.140;2023-05-14T00:39:06;6.65;;;3.22;;
77222;SDS011;66218;48.928;9.140;2023-05-14T00:41:31;6.97;;;4.40;;
77222;SDS011;66218;48.928;9.140;2023-05-14T00:43:56;6.95;;;3.40;;
77222;SDS011;66218;48.928;9.140;2023-05-14T00:46:22;5.60;;;4.18;;
77222;SDS011;66218;48.928;9.140;2023-05-14T00:48:47;8.63;;;4.00;;
77222;SDS011;66218;48.928;9.140;2023-05-14T00:51:12;6.20;;;3.30;;
77222;SDS011;66218;48.928;9.140;2023-05-14T00:53:38;7.47;;;3.75;;
77222;SDS011;66218;48.928;9.140;2023-05-14T00:56:03;6.90;;;3.58;;
77222;SDS011;66218;48.928;9.140;2023-05-14T00:58:29;6.10;;;3.35;;
77222;SDS011;66218;48.928;9.140;2023-05-14T01:00:55;6.50;;;3.42;;
77222;SDS011;66218;48.928;9.140;2023-05-14T01:03:20;8.13;;;3.33;;
77222;SDS011;66218;48.928;9.140;2023-05-14T01:05:57;6.57;;;3.95;;
77222;SDS011;66218;48.928;9.140;2023-05-14T01:11:25;7.75;;;3.90;;
77222;SDS011;66218;48.928;9.140;2023-05-14T01:16:41;8.18;;;3.45;;
77222;SDS011;66218;48.928;9.140;2023-05-14T01:19:09;6.97;;;3.60;;
77222;SDS011;66218;48.928;9.140;2023-05-14T01:21:45;8.52;;;3.72;;
77222;SDS011;66218;48.928;9.140;2023-05-14T01:24:11;9.20;;;4.18;;
77222;SDS011;66218;48.928;9.140;2023-05-14T01:26:36;9.55;;;4.35;;
77222;SDS011;66218;48.928;9.140;2023-05-14T01:29:22;6.28;;;3.85;;
77222;SDS011;66218;48.928;9.140;2023-05-14T01:31:47;7.95;;;3.85;;
77222;SDS011;66218;48.928;9.140;2023-05-14T01:34:14;7.43;;;3.90;;
77222;SDS011;66218;48.928;9.140;2023-05-14T01:36:42;6.63;;;3.92;;
77222;SDS011;66218;48.928;9.140;2023-05-14T01:39:08;7.55;;;4.03;;
77222;SDS011;66218;48.928;9.140;2023-05-14T01:41:36;6.13;;;3.72;;
77222;SDS011;66218;48.928;9.140;2023-05-14T01:44:03;10.82;;;4.38;;
77222;SDS011;66218;48.928;9.140;2023-05-14T01:46:31;10.43;;;3.90;;
77222;SDS011;66218;48.928;9.140;2023-05-14T01:48:57;7.68;;;3.63;;
77222;SDS011;66218;48.928;9.140;2023-05-14T01:51:23;11.50;;;3.70;;
77222;SDS011;66218;48.928;9.140;2023-05-14T01:53:48;5.60;;;3.53;;
77222;SDS011;66218;48.928;9.140;2023-05-14T01:56:13;7.55;;;3.83;;
77222;SDS011;66218;48.928;9.140;2023-05-14T01:58:39;8.90;;;3.70;;
77222;SDS011;66218;48.928;9.140;2023-05-14T02:01:04;10.45;;;4.53;;
77222;SDS011;66218;48.928;9.140;2023-05-14T02:03:29;5.50;;;3.22;;
77222;SDS011;66218;48.928;9.140;2023-05-14T02:05:55;5.97;;;3.55;;
77222;SDS011;66218;48.928;9.140;2023-05-14T02:08:20;7.47;;;3.78;;
77222;SDS011;66218;48.928;9.140;2023-05-14T02:10:45;6.18;;;3.10;;
77222;SDS011;66218;48.928;9.140;2023-05-14T02:13:11;7.78;;;4.20;;
77222;SDS011;66218;48.928;9.140;2023-05-14T02:15:36;7.55;;;4.03;;
77222;SDS011;66218;48.928;9.140;2023-05-14T02:18:02;7.72;;;3.85;;
77222;SDS011;66218;48.928;9.140;2023-05-14T02:20:27;6.18;;;3.92;;
77222;SDS011;66218;48.928;9.140;2023-05-14T02:22:52;8.43;;;4.03;;
77222;SDS011;66218;48.928;9.140;2023-05-14T02:25:18;6.57;;;3.28;;
77222;SDS011;66218;48.928;9.140;2023-05-14T02:27:43;7.55;;;3.50;;
77222;SDS011;66218;48.928;9.140;2023-05-14T02:30:09;8.07;;;3.45;;
77222;SDS011;66218;48.928;9.140;2023-05-14T02:32:35;7.55;;;3.33;;
77222;SDS011;66218;48.928;9.140;2023-05-14T02:35:00;6.30;;;2.90;;
77222;SDS011;66218;48.928;9.140;2023-05-14T02:37:25;7.40;;;3.65;;
77222;SDS011;66218;48.928;9.140;2023-05-14T02:39:50;5.30;;;2.42;;
77222;SDS011;66218;48.928;9.140;2023-05-14T02:42:17;7.40;;;3.20;;
77222;SDS011;66218;48.928;9.140;2023-05-14T02:44:42;4.77;;;3.20;;
77222;SDS011;66218;48.928;9.140;2023-05-14T02:47:07;7.18;;;3.67;;
77222;SDS011;66218;48.928;9.140;2023-05-14T02:49:33;6.00;;;3.58;;
77222;SDS011;66218;48.928;9.140;2023-05-14T02:51:58;8.02;;;4.05;;
77222;SDS011;66218;48.928;9.140;2023-05-14T02:54:24;8.27;;;3.28;;
77222;SDS011;66218;48.928;9.140;2023-05-14T02:56:50;8.13;;;3.03;;
77222;SDS011;66218;48.928;9.140;2023-05-14T02:59:15;8.15;;;4.38;;
77222;SDS011;66218;48.928;9.140;2023-05-14T03:01:41;6.47;;;3.13;;
77222;SDS011;66218;48.928;9.140;2023-05-14T03:04:06;6.82;;;3.13;;
77222;SDS011;66218;48.928;9.140;2023-05-14T03:06:31;7.00;;;3.83;;
77222;SDS011;66218;48.928;9.140;2023-05-14T03:08:57;8.02;;;3.90;;
77222;SDS011;66218;48.928;9.140;2023-05-14T03:11:22;4.72;;;2.83;;
77222;SDS011;66218;48.928;9.140;2023-05-14T03:13:47;5.95;;;3.63;;
77222;SDS011;66218;48.928;9.140;2023-05-14T03:16:13;6.75;;;3.63;;
77222;SDS011;66218;48.928;9.140;2023-05-14T03:18:38;6.13;;;3.03;;
77222;SDS011;66218;48.928;9.140;2023-05-14T03:21:03;5.13;;;2.28;;
77222;SDS011;66218;48.928;9.140;2023-05-14T03:23:29;5.90;;;3.15;;
77222;SDS011;66218;48.928;9.140;2023-05-14T03:25:56;6.82;;;3.38;;
77222;SDS011;66218;48.928;9.140;2023-05-14T03:28:21;8.55;;;3.45;;
77222;SDS011;66218;48.928;9.140;2023-05-14T03:30:47;5.63;;;3.22;;
77222;SDS011;66218;48.928;9.140;2023-05-14T03:33:12;4.40;;;1.92;;
77222;SDS011;66218;48.928;9.140;2023-05-14T03:35:37;5.65;;;2.67;;
77222;SDS011;66218;48.928;9.140;2023-05-14T03:38:03;6.10;;;3.05;;
77222;SDS011;66218;48.928;9.140;2023-05-14T03:40:28;5.30;;;2.40;;
77222;SDS011;66218;48.928;9.140;2023-05-14T03:42:54;6.15;;;2.63;;
77222;SDS011;66218;48.928;9.140;2023-05-14T03:45:20;4.45;;;2.83;;
77222;SDS011;66218;48.928;9.140;2023-05-14T03:47:45;5.68;;;2.90;;
77222;SDS011;66218;48.928;9.140;2023-05-14T03:50:10;3.83;;;2.35;;
77222;SDS011;66218;48.928;9.140;2023-05-14T03:52:35;5.65;;;2.47;;
77222;SDS011;66218;48.928;9.140;2023-05-14T03:55:01;6.25;;;3.25;;
77222;SDS011;66218;48.928;9.140;2023-05-14T03:57:26;7.18;;;2.85;;
77222;SDS011;66218;48.928;9.140;2023-05-14T03:59:51;5.65;;;2.90;;
77222;SDS011;66218;48.928;9.140;2023-05-14T04:02:17;5.35;;;2.42;;
77222;SDS011;66218;48.928;9.140;2023-05-14T04:04:42;5.63;;;2.72;;
77222;SDS011;66218;48.928;9.140;2023-05-14T04:07:08;7.18;;;2.85;;
77222;SDS011;66218;48.928;9.140;2023-05-14T04:09:33;6.18;;;2.88;;
77222;SDS011;66218;48.928;9.140;2023-05-14T04:11:58;7.45;;;3.15;;
77222;SDS011;66218;48.928;9.140;2023-05-14T04:14:24;5.03;;;2.63;;
77222;SDS011;66218;48.928;9.140;2023-05-14T04:16:49;6.22;;;3.22;;
77222;SDS011;66218;48.928;9.140;2023-05-14T04:19:14;5.28;;;3.40;;
77222;SDS011;66218;48.928;9.140;2023-05-14T04:21:40;8.73;;;3.00;;
77222;SDS011;66218;48.928;9.140;2023-05-14T04:24:05;5.32;;;2.30;;
77222;SDS011;66218;48.928;9.140;2023-05-14T04:26:31;6.55;;;2.85;;
77222;SDS011;66218;48.928;9.140;2023-05-14T04:28:56;5.70;;;2.75;;
77222;SDS011;66218;48.928;9.140;2023-05-14T04:31:22;4.97;;;2.35;;
77222;SDS011;66218;48.928;9.140;2023-05-14T04:33:47;5.80;;;2.38;;
77222;SDS011;66218;48.928;9.140;2023-05-14T04:36:13;5.55;;;2.45;;
77222;SDS011;66218;48.928;9.140;2023-05-14T04:38:38;4.93;;;2.20;;
77222;SDS011;66218;48.928;9.140;2023-05-14T04:41:03;5.97;;;2.42;;
77222;SDS011;66218;48.928;9.140;2023-05-14T04:43:30;4.15;;;2.08;;
77222;SDS011;66218;48.928;9.140;2023-05-14T04:45:55;5.47;;;2.38;;
77222;SDS011;66218;48.928;9.140;2023-05-14T04:48:20;2.92;;;2.10;;
77222;SDS011;66218;48.928;9.140;2023-05-14T04:50:46;6.03;;;2.58;;
77222;SDS011;66218;48.928;9.140;2023-05-14T04:53:11;3.25;;;1.65;;
77222;SDS011;66218;48.928;9.140;2023-05-14T04:55:37;4.93;;;2.25;;
77222;SDS011;66218;48.928;9.140;2023-05-14T04:58:02;5.57;;;2.45;;
77222;SDS011;66218;48.928;9.140;2023-05-14T05:00:27;5.75;;;2.80;;
77222;SDS011;66218;48.928;9.140;2023-05-14T05:02:54;9.43;;;2.50;;
77222;SDS011;66218;48.928;9.140;2023-05-14T05:05:19;4.45;;;2.30;;
77222;SDS011;66218;48.928;9.140;2023-05-14T05:07:45;5.85;;;2.33;;
77222;SDS011;66218;48.928;9.140;2023-05-14T05:10:10;4.00;;;2.17;;
77222;SDS011;66218;48.928;9.140;2023-05-14T05:12:36;14.10;;;3.40;;
77222;SDS011;66218;48.928;9.140;2023-05-14T05:15:02;7.03;;;2.67;;
77222;SDS011;66218;48.928;9.140;2023-05-14T05:17:27;5.95;;;3.25;;
77222;SDS011;66218;48.928;9.140;2023-05-14T05:19:53;6.60;;;2.58;;
77222;SDS011;66218;48.928;9.140;2023-05-14T05:22:19;7.65;;;3.78;;
77222;SDS011;66218;48.928;9.140;2023-05-14T05:24:44;7.57;;;3.20;;
77222;SDS011;66218;48.928;9.140;2023-05-14T05:27:09;5.32;;;2.40;;
77222;SDS011;66218;48.928;9.140;2023-05-14T05:29:35;5.80;;;3.08;;
77222;SDS011;66218;48.928;9.140;2023-05-14T05:32:00;5.18;;;3.15;;
77222;SDS011;66218;48.928;9.140;2023-05-14T05:34:26;6.57;;;3.30;;
77222;SDS011;66218;48.928;9.140;2023-05-14T05:36:51;5.72;;;2.50;;
77222;SDS011;66218;48.928;9.140;2023-05-14T05:39:17;5.13;;;2.90;;
77222;SDS011;66218;48.928;9.140;2023-05-14T05:41:42;4.70;;;2.28;;
77222;SDS011;66218;48.928;9.140;2023-05-14T05:44:08;6.20;;;2.85;;
77222;SDS011;66218;48.928;9.140;2023-05-14T05:46:33;6.75;;;2.95;;
77222;SDS011;66218;48.928;9.140;2023-05-14T05:48:59;6.80;;;3.05;;
77222;SDS011;66218;48.928;9.140;2023-05-14T05:51:24;6.97;;;3.08;;
77222;SDS011;66218;48.928;9.140;2023-05-14T05:53:49;5.80;;;2.63;;
77222;SDS011;66218;48.928;9.140;2023-05-14T05:56:15;4.50;;;2.30;;
77222;SDS011;66218;48.928;9.140;2023-05-14T05:58:40;5.65;;;2.70;;
77222;SDS011;66218;48.928;9.140;2023-05-14T06:01:06;4.22;;;2.60;;
77222;SDS011;66218;48.928;9.140;2023-05-14T06:03:31;6.10;;;3.22;;
77222;SDS011;66218;48.928;9.140;2023-05-14T06:05:56;6.65;;;3.05;;
77222;SDS011;66218;48.928;9.140;2023-05-14T06:08:22;6.30;;;3.00;;
77222;SDS011;66218;48.928;9.140;2023-05-14T06:10:47;3.35;;;2.40;;
77222;SDS011;66218;48.928;9.140;2023-05-14T06:13:12;5.35;;;2.38;;
77222;SDS011;66218;48.928;9.140;2023-05-14T06:15:37;5.45;;;2.63;;
77222;SDS011;66218;48.928;9.140;2023-05-14T06:18:03;7.03;;;3.05;;
77222;SDS011;66218;48.928;9.140;2023-05-14T06:20:28;7.05;;;2.60;;
77222;SDS011;66218;48.928;9.140;2023-05-14T06:22:54;5.80;;;3.10;;
77222;SDS011;66218;48.928;9.140;2023-05-14T06:25:19;5.53;;;3.13;;
77222;SDS011;66218;48.928;9.140;2023-05-14T06:27:44;6.53;;;2.78;;
77222;SDS011;66218;48.928;9.140;2023-05-14T06:30:10;5.03;;;2.58;;
77222;SDS011;66218;48.928;9.140;2023-05-14T06:32:36;8.93;;;3.15;;
77222;SDS011;66218;48.928;9.140;2023-05-14T06:35:01;4.95;;;2.72;;
77222;SDS011;66218;48.928;9.140;2023-05-14T06:37:27;7.78;;;2.50;;
77222;SDS011;66218;48.928;9.140;2023-05-14T06:39:52;5.43;;;2.90;;
77222;SDS011;66218;48.928;9.140;2023-05-14T06:42:17;5.22;;;2.63;;
77222;SDS011;66218;48.928;9.140;2023-05-14T06:44:43;5.40;;;3.15;;
77222;SDS011;66218;48.928;9.140;2023-05-14T06:47:09;6.80;;;2.95;;
77222;SDS011;66218;48.928;9.140;2023-05-14T06:49:34;6.00;;;3.30;;
77222;SDS011;66218;48.928;9.140;2023-05-14T06:52:00;4.75;;;2.63;;
77222;SDS011;66218;48.928;9.140;2023-05-14T06:54:25;6.25;;;2.80;;
77222;SDS011;66218;48.928;9.140;2023-05-14T06:56:52;8.50;;;3.15;;
77222;SDS011;66218;48.928;9.140;2023-05-14T06:59:17;4.68;;;2.90;;
77222;SDS011;66218;48.928;9.140;2023-05-14T07:01:43;4.93;;;2.88;;
77222;SDS011;66218;48.928;9.140;2023-05-14T07:04:08;5.13;;;2.60;;
77222;SDS011;66218;48.928;9.140;2023-05-14T07:06:33;6.28;;;3.03;;
77222;SDS011;66218;48.928;9.140;2023-05-14T07:08:59;6.53;;;2.78;;
77222;SDS011;66218;48.928;9.140;2023-05-14T07:11:25;6.03;;;2.65;;
77222;SDS011;66218;48.928;9.140;2023-05-14T07:13:50;6.18;;;3.30;;
77222;SDS011;66218;48.928;9.140;2023-05-14T07:16:16;7.03;;;3.45;;
77222;SDS011;66218;48.928;9.140;2023-05-14T07:18:41;6.13;;;3.50;;
77222;SDS011;66218;48.928;9.140;2023-05-14T07:21:06;8.05;;;3.33;;
77222;SDS011;66218;48.928;9.140;2023-05-14T07:23:32;6.30;;;3.30;;
77222;SDS011;66218;48.928;9.140;2023-05-14T07:26:00;7.57;;;3.67;;
77222;SDS011;66218;48.928;9.140;2023-05-14T07:28:25;7.18;;;2.90;;
77222;SDS011;66218;48.928;9.140;2023-05-14T07:30:50;6.73;;;3.00;;
77222;SDS011;66218;48.928;9.140;2023-05-14T07:33:15;6.47;;;3.28;;
77222;SDS011;66218;48.928;9.140;2023-05-14T07:35:41;6.10;;;3.40;;
77222;SDS011;66218;48.928;9.140;2023-05-14T07:38:06;6.03;;;3.35;;
77222;SDS011;66218;48.928;9.140;2023-05-14T07:40:31;8.20;;;3.92;;
77222;SDS011;66218;48.928;9.140;2023-05-14T07:42:57;8.57;;;3.45;;
77222;SDS011;66218;48.928;9.140;2023-05-14T07:45:22;5.88;;;3.38;;
77222;SDS011;66218;48.928;9.140;2023-05-14T07:47:47;5.70;;;3.47;;
77222;SDS011;66218;48.928;9.140;2023-05-14T07:50:16;7.22;;;3.25;;
77222;SDS011;66218;48.928;9.140;2023-05-14T07:52:42;7.00;;;3.75;;
77222;SDS011;66218;48.928;9.140;2023-05-14T07:55:08;6.05;;;3.50;;
77222;SDS011;66218;48.928;9.140;2023-05-14T07:57:33;9.27;;;4.75;;
77222;SDS011;66218;48.928;9.140;2023-05-14T07:59:59;6.75;;;3.17;;
77222;SDS011;66218;48.928;9.140;2023-05-14T08:02:24;7.47;;;3.45;;
77222;SDS011;66218;48.928;9.140;2023-05-14T08:04:50;6.05;;;3.80;;
77222;SDS011;66218;48.928;9.140;2023-05-14T08:07:15;6.00;;;3.58;;
77222;SDS011;66218;48.928;9.140;2023-05-14T08:09:41;8.65;;;4.18;;
77222;SDS011;66218;48.928;9.140;2023-05-14T08:12:06;5.88;;;3.42;;
77222;SDS011;66218;48.928;9.140;2023-05-14T08:14:32;6.18;;;3.28;;
77222;SDS011;66218;48.928;9.140;2023-05-14T08:16:57;4.40;;;3.10;;
77222;SDS011;66218;48.928;9.140;2023-05-14T08:19:23;8.88;;;3.55;;
77222;SDS011;66218;48.928;9.140;2023-05-14T08:21:48;7.82;;;3.83;;
77222;SDS011;66218;48.928;9.140;2023-05-14T08:24:14;6.75;;;3.35;;
77222;SDS011;66218;48.928;9.140;2023-05-14T08:26:39;7.72;;;4.18;;
77222;SDS011;66218;48.928;9.140;2023-05-14T08:29:05;5.88;;;4.00;;
77222;SDS011;66218;48.928;9.140;2023-05-14T08:31:30;6.60;;;3.35;;
77222;SDS011;66218;48.928;9.140;2023-05-14T08:33:55;7.97;;;3.60;;
77222;SDS011;66218;48.928;9.140;2023-05-14T08:36:20;5.20;;;3.03;;
77222;SDS011;66218;48.928;9.140;2023-05-14T08:38:46;7.82;;;3.72;;
77222;SDS011;66218;48.928;9.140;2023-05-14T08:46:33;7.32;;;4.30;;
77222;SDS011;66218;48.928;9.140;2023-05-14T08:49:45;6.78;;;3.83;;
77222;SDS011;66218;48.928;9.140;2023-05-14T08:55:44;6.95;;;3.30;;
77222;SDS011;66218;48.928;9.140;2023-05-14T08:58:12;6.63;;;3.45;;
77222;SDS011;66218;48.928;9.140;2023-05-14T09:00:37;7.72;;;3.75;;
77222;SDS011;66218;48.928;9.140;2023-05-14T09:03:02;5.55;;;3.53;;
77222;SDS011;66218;48.928;9.140;2023-05-14T09:05:31;5.97;;;4.03;;
77222;SDS011;66218;48.928;9.140;2023-05-14T09:07:57;7.32;;;3.90;;
77222;SDS011;66218;48.928;9.140;2023-05-14T09:10:23;7.25;;;4.00;;
77222;SDS011;66218;48.928;9.140;2023-05-14T09:12:48;6.97;;;3.85;;
77222;SDS011;66218;48.928;9.140;2023-05-14T09:15:14;7.88;;;4.07;;
77222;SDS011;66218;48.928;9.140;2023-05-14T09:17:39;6.93;;;4.15;;
77222;SDS011;66218;48.928;9.140;2023-05-14T09:20:05;6.50;;;4.10;;
77222;SDS011;66218;48.928;9.140;2023-05-14T09:25:03;7.23;;;4.03;;
77222;SDS011;66218;48.928;9.140;2023-05-14T09:27:30;7.60;;;3.47;;
77222;SDS011;66218;48.928;9.140;2023-05-14T09:30:03;8.45;;;4.18;;
77222;SDS011;66218;48.928;9.140;2023-05-14T09:32:43;5.53;;;3.33;;
77222;SDS011;66218;48.928;9.140;2023-05-14T09:37:41;6.90;;;4.20;;
77222;SDS011;66218;48.928;9.140;2023-05-14T09:40:07;9.95;;;4.00;;
77222;SDS011;66218;48.928;9.140;2023-05-14T09:45:02;12.52;;;3.90;;
77222;SDS011;66218;48.928;9.140;2023-05-14T09:47:28;6.55;;;3.35;;
77222;SDS011;66218;48.928;9.140;2023-05-14T09:49:54;5.30;;;3.22;;
77222;SDS011;66218;48.928;9.140;2023-05-14T09:52:20;5.80;;;3.42;;
77222;SDS011;66218;48.928;9.140;2023-05-14T09:54:47;8.45;;;3.63;;
77222;SDS011;66218;48.928;9.140;2023-05-14T09:57:15;8.05;;;4.25;;
77222;SDS011;66218;48.928;9.140;2023-05-14T09:59:40;7.18;;;3.83;;
77222;SDS011;66218;48.928;9.140;2023-05-14T10:02:06;8.02;;;3.67;;
77222;SDS011;66218;48.928;9.140;2023-05-14T10:04:44;7.22;;;3.42;;
77222;SDS011;66218;48.928;9.140;2023-05-14T10:07:10;8.38;;;3.88;;
77222;SDS011;66218;48.928;9.140;2023-05-14T10:09:37;7.32;;;4.07;;
77222;SDS011;66218;48.928;9.140;2023-05-14T10:12:05;8.15;;;3.72;;
77222;SDS011;66218;48.928;9.140;2023-05-14T10:14:32;7.85;;;3.83;;
77222;SDS011;66218;48.928;9.140;2023-05-14T10:17:02;6.88;;;4.15;;
77222;SDS011;66218;48.928;9.140;2023-05-14T10:19:30;5.85;;;3.90;;
77222;SDS011;66218;48.928;9.140;2023-05-14T10:22:04;6.18;;;3.42;;
77222;SDS011;66218;48.928;9.140;2023-05-14T10:24:31;6.38;;;3.38;;
77222;SDS011;66218;48.928;9.140;2023-05-14T10:26:58;7.65;;;3.72;;
77222;SDS011;66218;48.928;9.140;2023-05-14T10:29:33;7.60;;;3.80;;
77222;SDS011;66218;48.928;9.140;2023-05-14T10:32:00;5.68;;;3.72;;
77222;SDS011;66218;48.928;9.140;2023-05-14T10:34:39;8.90;;;4.18;;
77222;SDS011;66218;48.928;9.140;2023-05-14T10:37:16;7.25;;;4.30;;
77222;SDS011;66218;48.928;9.140;2023-05-14T10:42:22;7.72;;;3.78;;
77222;SDS011;66218;48.928;9.140;2023-05-14T10:45:06;6.95;;;3.95;;
77222;SDS011;66218;48.928;9.140;2023-05-14T10:47:34;7.53;;;3.47;;
77222;SDS011;66218;48.928;9.140;2023-05-14T10:50:07;8.10;;;3.83;;
77222;SDS011;66218;48.928;9.140;2023-05-14T10:52:35;6.45;;;3.60;;
77222;SDS011;66218;48.928;9.140;2023-05-14T10:55:01;5.85;;;3.58;;
77222;SDS011;66218;48.928;9.140;2023-05-14T10:57:29;6.47;;;3.80;;
77222;SDS011;66218;48.928;9.140;2023-05-14T10:59:56;6.75;;;3.22;;
77222;SDS011;66218;48.928;9.140;2023-05-14T11:02:24;6.93;;;3.53;;
77222;SDS011;66218;48.928;9.140;2023-05-14T11:05:00;7.47;;;3.42;;
77222;SDS011;66218;48.928;9.140;2023-05-14T11:07:29;6.40;;;3.88;;
77222;SDS011;66218;48.928;9.140;2023-05-14T11:10:06;6.45;;;3.25;;
77222;SDS011;66218;48.928;9.140;2023-05-14T11:12:36;6.03;;;3.20;;
77222;SDS011;66218;48.928;9.140;2023-05-14T11:15:04;4.80;;;2.92;;
77222;SDS011;66218;48.928;9.140;2023-05-14T11:17:31;4.43;;;3.05;;
77222;SDS011;66218;48.928;9.140;2023-05-14T11:19:59;4.53;;;2.83;;
77222;SDS011;66218;48.928;9.140;2023-05-14T11:22:24;4.75;;;2.92;;
77222;SDS011;66218;48.928;9.140;2023-05-14T11:24:50;5.63;;;3.10;;
77222;SDS011;66218;48.928;9.140;2023-05-14T11:27:16;5.85;;;2.78;;
77222;SDS011;66218;48.928;9.140;2023-05-14T11:29:43;4.40;;;2.53;;
77222;SDS011;66218;48.928;9.140;2023-05-14T11:32:10;4.57;;;2.90;;
77222;SDS011;66218;48.928;9.140;2023-05-14T11:37:05;4.10;;;2.60;;
77222;SDS011;66218;48.928;9.140;2023-05-14T11:39:31;4.38;;;2.90;;
77222;SDS011;66218;48.928;9.140;2023-05-14T11:44:22;3.70;;;2.17;;
77222;SDS011;66218;48.928;9.140;2023-05-14T11:46:54;5.32;;;2.67;;
77222;SDS011;66218;48.928;9.140;2023-05-14T11:49:21;5.57;;;3.08;;
77222;SDS011;66218;48.928;9.140;2023-05-14T11:51:59;6.40;;;2.83;;
77222;SDS011;66218;48.928;9.140;2023-05-14T11:54:26;4.68;;;2.83;;
77222;SDS011;66218;48.928;9.140;2023-05-14T11:56:53;6.47;;;3.00;;
77222;SDS011;66218;48.928;9.140;2023-05-14T11:59:19;4.47;;;2.47;;
77222;SDS011;66218;48.928;9.140;2023-05-14T12:01:45;4.90;;;2.70;;
77222;SDS011;66218;48.928;9.140;2023-05-14T12:06:30;3.38;;;2.17;;
77222;SDS011;66218;48.928;9.140;2023-05-14T12:08:56;4.22;;;2.40;;
77222;SDS011;66218;48.928;9.140;2023-05-14T12:11:21;5.28;;;2.85;;
77222;SDS011;66218;48.928;9.140;2023-05-14T12:13:46;6.45;;;2.88;;
77222;SDS011;66218;48.928;9.140;2023-05-14T12:16:12;4.13;;;2.53;;
77222;SDS011;66218;48.928;9.140;2023-05-14T12:18:37;4.10;;;2.35;;
77222;SDS011;66218;48.928;9.140;2023-05-14T12:21:03;4.63;;;2.70;;
77222;SDS011;66218;48.928;9.140;2023-05-14T12:23:29;3.28;;;2.08;;
77222;SDS011;66218;48.928;9.140;2023-05-14T12:25:59;3.10;;;1.73;;
77222;SDS011;66218;48.928;9.140;2023-05-14T12:28:30;5.28;;;2.35;;
77222;SDS011;66218;48.928;9.140;2023-05-14T12:30:55;3.53;;;2.20;;
77222;SDS011;66218;48.928;9.140;2023-05-14T12:33:21;3.92;;;2.13;;
77222;SDS011;66218;48.928;9.140;2023-05-14T12:35:48;3.30;;;1.80;;
77222;SDS011;66218;48.928;9.140;2023-05-14T12:38:17;4.43;;;2.30;;
77222;SDS011;66218;48.928;9.140;2023-05-14T12:40:43;3.92;;;2.20;;
77222;SDS011;66218;48.928;9.140;2023-05-14T12:43:08;3.92;;;2.08;;
77222;SDS011;66218;48.928;9.140;2023-05-14T12:45:34;6.78;;;2.20;;
77222;SDS011;66218;48.928;9.140;2023-05-14T12:47:59;3.95;;;1.88;;
77222;SDS011;66218;48.928;9.140;2023-05-14T12:50:24;4.80;;;1.80;;
77222;SDS011;66218;48.928;9.140;2023-05-14T12:52:50;3.78;;;1.98;;
77222;SDS011;66218;48.928;9.140;2023-05-14T12:55:15;3.65;;;1.95;;
77222;SDS011;66218;48.928;9.140;2023-05-14T12:57:41;4.22;;;1.90;;
77222;SDS011;66218;48.928;9.140;2023-05-14T13:00:07;2.67;;;1.63;;
77222;SDS011;66218;48.928;9.140;2023-05-14T13:02:34;3.88;;;2.63;;
77222;SDS011;66218;48.928;9.140;2023-05-14T13:05:00;3.83;;;2.03;;
77222;SDS011;66218;48.928;9.140;2023-05-14T13:07:27;4.43;;;1.92;;
77222;SDS011;66218;48.928;9.140;2023-05-14T13:09:54;3.03;;;1.85;;
77222;SDS011;66218;48.928;9.140;2023-05-14T13:12:20;3.58;;;2.10;;
77222;SDS011;66218;48.928;9.140;2023-05-14T13:14:45;5.05;;;2.20;;
77222;SDS011;66218;48.928;9.140;2023-05-14T13:17:10;4.63;;;2.20;;
77222;SDS011;66218;48.928;9.140;2023-05-14T13:19:36;4.07;;;2.08;;
77222;SDS011;66218;48.928;9.140;2023-05-14T13:22:01;2.95;;;1.52;;
77222;SDS011;66218;48.928;9.140;2023-05-14T13:24:26;3.33;;;1.90;;
77222;SDS011;66218;48.928;9.140;2023-05-14T13:26:51;4.18;;;1.98;;
77222;SDS011;66218;48.928;9.140;2023-05-14T13:29:17;3.60;;;1.83;;
77222;SDS011;66218;48.928;9.140;2023-05-14T13:31:42;3.05;;;1.77;;
77222;SDS011;66218;48.928;9.140;2023-05-14T13:34:07;4.20;;;1.98;;
77222;SDS011;66218;48.928;9.140;2023-05-14T13:39:03;3.80;;;1.95;;
77222;SDS011;66218;48.928;9.140;2023-05-14T13:43:58;3.17;;;1.95;;
77222;SDS011;66218;48.928;9.140;2023-05-14T13:46:24;4.63;;;2.40;;
77222;SDS011;66218;48.928;9.140;2023-05-14T13:48:49;7.95;;;2.60;;
77222;SDS011;66218;48.928;9.140;2023-05-14T13:51:15;4.82;;;2.28;;
77222;SDS011;66218;48.928;9.140;2023-05-14T13:53:40;4.38;;;2.35;;
77222;SDS011;66218;48.928;9.140;2023-05-14T13:56:05;3.45;;;1.73;;
77222;SDS011;66218;48.928;9.140;2023-05-14T13:58:32;3.45;;;2.13;;
77222;SDS011;66218;48.928;9.140;2023-05-14T14:00:58;3.25;;;2.10;;
77222;SDS011;66218;48.928;9.140;2023-05-14T14:03:23;3.10;;;1.80;;
77222;SDS011;66218;48.928;9.140;2023-05-14T14:05:49;3.40;;;1.92;;
77222;SDS011;66218;48.928;9.140;2023-05-14T14:08:15;3.88;;;2.00;;
77222;SDS011;66218;48.928;9.140;2023-05-14T14:10:41;3.17;;;1.65;;
77222;SDS011;66218;48.928;9.140;2023-05-14T14:13:07;3.63;;;1.60;;
77222;SDS011;66218;48.928;9.140;2023-05-14T14:15:33;4.85;;;1.90;;
77222;SDS011;66218;48.928;9.140;2023-05-14T14:17:58;3.42;;;2.00;;
77222;SDS011;66218;48.928;9.140;2023-05-14T14:20:24;3.38;;;1.70;;
77222;SDS011;66218;48.928;9.140;2023-05-14T14:22:49;2.97;;;1.77;;
77222;SDS011;66218;48.928;9.140;2023-05-14T14:25:14;3.35;;;1.77;;
77222;SDS011;66218;48.928;9.140;2023-05-14T14:27:39;3.92;;;1.70;;
77222;SDS011;66218;48.928;9.140;2023-05-14T14:30:06;3.80;;;1.77;;
77222;SDS011;66218;48.928;9.140;2023-05-14T14:32:33;4.25;;;1.60;;
77222;SDS011;66218;48.928;9.140;2023-05-14T14:34:59;3.42;;;1.70;;
77222;SDS011;66218;48.928;9.140;2023-05-14T14:37:24;2.20;;;1.20;;
77222;SDS011;66218;48.928;9.140;2023-05-14T14:39:50;3.58;;;2.05;;
77222;SDS011;66218;48.928;9.140;2023-05-14T14:42:15;3.30;;;1.90;;
77222;SDS011;66218;48.928;9.140;2023-05-14T14:44:40;3.33;;;1.90;;
77222;SDS011;66218;48.928;9.140;2023-05-14T14:47:06;2.88;;;1.60;;
77222;SDS011;66218;48.928;9.140;2023-05-14T14:49:31;4.47;;;1.20;;
77222;SDS011;66218;48.928;9.140;2023-05-14T14:51:56;2.00;;;1.42;;
77222;SDS011;66218;48.928;9.140;2023-05-14T14:54:22;2.63;;;1.30;;
77222;SDS011;66218;48.928;9.140;2023-05-14T14:56:47;2.70;;;1.50;;
77222;SDS011;66218;48.928;9.140;2023-05-14T14:59:16;5.38;;;1.63;;
77222;SDS011;66218;48.928;9.140;2023-05-14T15:01:41;3.08;;;1.75;;
77222;SDS011;66218;48.928;9.140;2023-05-14T15:04:06;3.63;;;1.60;;
77222;SDS011;66218;48.928;9.140;2023-05-14T15:06:32;3.03;;;1.55;;
77222;SDS011;66218;48.928;9.140;2023-05-14T15:08:57;2.97;;;1.80;;
77222;SDS011;66218;48.928;9.140;2023-05-14T15:11:23;4.05;;;1.90;;
77222;SDS011;66218;48.928;9.140;2023-05-14T15:13:48;4.28;;;2.08;;
77222;SDS011;66218;48.928;9.140;2023-05-14T15:16:14;3.33;;;1.80;;
77222;SDS011;66218;48.928;9.140;2023-05-14T15:18:39;3.22;;;1.90;;